createdAt,value
2022-09-09T00:02:09.720Z,57.65
2022-09-09T00:04:39.801Z,59.51
2022-09-09T00:07:14.495Z,61.34
2022-09-09T00:09:50.334Z,65.06
2022-09-09T00:12:23.389Z,63.65
2022-09-09T00:15:08.971Z,60.51
2022-09-09T00:17:42.543Z,55.26
2022-09-09T00:20:43.349Z,55.23
2022-09-09T00:23:25.865Z,57.18
2022-09-09T00:26:02.483Z,59.44
2022-09-09T00:28:35.490Z,61.36
2022-09-09T00:31:13.790Z,65.09
2022-09-09T00:33:44.310Z,63.53
2022-09-09T00:36:17.823Z,59.98
2022-09-09T00:38:50.381Z,55.82
2022-09-09T00:41:26.869Z,55.99
2022-09-09T00:44:04.414Z,57.91
2022-09-09T00:46:50.985Z,59.80
2022-09-09T00:49:36.962Z,61.41
2022-09-09T00:52:20.739Z,65.47
2022-09-09T00:55:04.270Z,63.17
2022-09-09T00:57:39.382Z,59.79
2022-09-09T01:00:22.360Z,55.38
2022-09-09T01:03:09.745Z,55.58
2022-09-09T01:05:58.718Z,57.50
2022-09-09T01:08:32.754Z,59.29
2022-09-09T01:11:01.286Z,61.12
2022-09-09T01:13:31.600Z,64.86
2022-09-09T01:16:06.965Z,63.50
2022-09-09T01:18:42.733Z,57.55
2022-09-09T01:21:38.780Z,56.69
2022-09-09T01:24:31.178Z,58.49
2022-09-09T01:27:07.553Z,60.48
2022-09-09T01:29:35.281Z,64.47
2022-09-09T01:32:24.480Z,62.69
2022-09-09T01:34:53.199Z,57.00
2022-09-09T01:37:20.876Z,56.81
2022-09-09T01:39:48.763Z,58.57
2022-09-09T01:42:17.788Z,60.26
2022-09-09T01:44:45.476Z,61.98
2022-09-09T01:47:13.274Z,65.84
2022-09-09T01:49:41.237Z,63.98
2022-09-09T01:52:09.976Z,58.25
2022-09-09T01:54:38.099Z,57.11
2022-09-09T01:57:21.516Z,58.72
2022-09-09T02:00:10.667Z,60.47
2022-09-09T02:03:06.191Z,64.57
2022-09-09T02:05:37.837Z,61.81
2022-09-09T02:08:43.409Z,56.45
2022-09-09T02:11:23.970Z,56.39
2022-09-09T02:13:59.121Z,58.31
2022-09-09T02:16:33.281Z,60.22
2022-09-09T02:19:24.973Z,64.23
2022-09-09T02:21:56.263Z,62.86
2022-09-09T02:24:27.319Z,57.16
2022-09-09T02:26:58.536Z,56.35
2022-09-09T02:29:31.574Z,57.72
2022-09-09T02:32:05.140Z,59.43
2022-09-09T02:34:38.268Z,61.11
2022-09-09T02:37:09.251Z,64.83
2022-09-09T02:39:37.605Z,63.71
2022-09-09T02:42:06.388Z,57.90
2022-09-09T02:44:34.340Z,56.38
2022-09-09T02:47:13.962Z,57.88
2022-09-09T02:49:51.603Z,59.55
2022-09-09T02:52:32.024Z,61.28
2022-09-09T02:55:11.006Z,65.23
2022-09-09T02:57:40.134Z,63.14
2022-09-09T03:00:08.742Z,56.94
2022-09-09T03:02:36.529Z,56.00
2022-09-09T03:05:06.114Z,57.77
2022-09-09T03:07:34.492Z,59.63
2022-09-09T03:10:02.573Z,61.28
2022-09-09T03:12:30.449Z,65.07
2022-09-09T03:14:58.275Z,63.63
2022-09-09T03:17:26.885Z,58.30
2022-09-09T03:19:56.117Z,56.73
2022-09-09T03:22:23.871Z,58.03
2022-09-09T03:24:51.761Z,59.71
2022-09-09T03:27:20.629Z,61.81
2022-09-09T03:29:51.130Z,65.62
2022-09-09T03:32:20.033Z,64.13
2022-09-09T03:34:48.522Z,59.96
2022-09-09T03:37:18.831Z,55.38
2022-09-09T03:39:46.895Z,55.17
2022-09-09T03:42:15.893Z,56.73
2022-09-09T03:44:44.388Z,58.16
2022-09-09T03:47:12.164Z,59.87
2022-09-09T03:49:39.964Z,61.61
2022-09-09T03:52:09.208Z,65.44
2022-09-09T03:54:37.100Z,64.64
2022-09-09T03:57:05.882Z,60.49
2022-09-09T03:59:33.550Z,55.27
2022-09-09T04:02:01.747Z,54.36
2022-09-09T04:04:29.466Z,55.82
2022-09-09T04:06:57.467Z,57.72
2022-09-09T04:09:25.395Z,59.44
2022-09-09T04:11:54.200Z,60.68
2022-09-09T04:14:23.099Z,64.37
2022-09-09T04:16:50.864Z,63.71
2022-09-09T04:19:18.694Z,58.41
2022-09-09T04:21:46.566Z,56.99
2022-09-09T04:24:14.256Z,58.35
2022-09-09T04:26:42.747Z,60.13
2022-09-09T04:29:10.832Z,62.05
2022-09-09T04:31:43.061Z,66.02
2022-09-09T04:34:11.267Z,63.04
2022-09-09T04:36:41.375Z,56.62
2022-09-09T04:39:09.163Z,55.77
2022-09-09T04:41:36.898Z,57.63
2022-09-09T04:44:04.760Z,59.55
2022-09-09T04:46:32.466Z,61.28
2022-09-09T04:49:00.189Z,65.08
2022-09-09T04:51:28.094Z,63.20
2022-09-09T04:53:55.921Z,57.35
2022-09-09T04:56:23.892Z,56.09
2022-09-09T04:58:51.674Z,57.88
2022-09-09T05:01:23.113Z,59.74
2022-09-09T05:03:53.156Z,61.11
2022-09-09T05:06:23.112Z,65.27
2022-09-09T05:08:51.621Z,63.13
2022-09-09T05:11:28.413Z,57.15
2022-09-09T05:13:57.570Z,56.18
2022-09-09T05:16:25.804Z,57.87
2022-09-09T05:18:53.585Z,59.84
2022-09-09T05:21:24.109Z,61.23
2022-09-09T05:23:54.664Z,64.49
2022-09-09T05:26:23.822Z,62.60
2022-09-09T05:28:51.564Z,57.13
2022-09-09T05:31:20.498Z,56.46
2022-09-09T05:33:50.523Z,58.35
2022-09-09T05:36:21.264Z,60.25
2022-09-09T05:38:50.925Z,63.82
2022-09-09T05:41:18.955Z,63.43
2022-09-09T05:43:50.600Z,59.90
2022-09-09T05:46:21.603Z,55.31
2022-09-09T05:48:52.082Z,55.75
2022-09-09T05:51:25.640Z,58.14
2022-09-09T05:53:56.287Z,59.08
2022-09-09T05:56:26.798Z,61.11
2022-09-09T05:58:55.910Z,65.27
2022-09-09T06:01:25.240Z,63.37
2022-09-09T06:03:54.072Z,58.17
2022-09-09T06:06:26.469Z,56.85
2022-09-09T06:08:59.172Z,58.64
2022-09-09T06:11:33.281Z,60.19
2022-09-09T06:14:01.572Z,61.15
2022-09-09T06:16:31.054Z,64.41
2022-09-09T06:18:59.374Z,63.06
2022-09-09T06:21:41.832Z,57.55
2022-09-09T06:24:09.885Z,56.10
2022-09-09T06:26:42.750Z,57.58
2022-09-09T06:29:11.203Z,59.52
2022-09-09T06:31:39.422Z,60.78
2022-09-09T06:34:08.986Z,64.17
2022-09-09T06:36:39.121Z,63.56
2022-09-09T06:39:14.191Z,59.51
2022-09-09T06:41:43.835Z,54.50
2022-09-09T06:44:12.990Z,54.63
2022-09-09T06:46:41.280Z,55.12
2022-09-09T06:49:10.213Z,55.22
2022-09-09T06:51:44.126Z,54.90
2022-09-09T06:54:13.278Z,54.63
2022-09-09T06:56:44.047Z,54.53
2022-09-09T06:59:13.289Z,53.59
2022-09-09T07:01:44.854Z,52.90
2022-09-09T07:04:13.669Z,51.87
2022-09-09T07:06:44.488Z,51.54
2022-09-09T07:09:14.333Z,50.96
2022-09-09T07:11:52.617Z,50.75
2022-09-09T07:14:20.741Z,49.71
2022-09-09T07:16:48.631Z,48.99
2022-09-09T07:19:16.653Z,48.74
2022-09-09T07:21:45.055Z,49.69
2022-09-09T07:24:13.821Z,50.53
2022-09-09T07:26:42.223Z,52.65
2022-09-09T07:29:10.063Z,54.04
2022-09-09T07:31:40.852Z,55.37
2022-09-09T07:34:08.857Z,56.35
2022-09-09T07:36:39.590Z,57.35
2022-09-09T07:39:10.280Z,58.43
2022-09-09T07:41:41.059Z,59.67
2022-09-09T07:44:18.165Z,61.10
2022-09-09T07:46:46.752Z,61.83
2022-09-09T07:49:16.226Z,65.37
2022-09-09T07:51:46.909Z,63.67
2022-09-09T07:54:18.360Z,58.09
2022-09-09T07:56:46.108Z,56.72
2022-09-09T07:59:14.706Z,57.62
2022-09-09T08:01:51.313Z,58.92
2022-09-09T08:04:20.770Z,59.32
2022-09-09T08:06:49.907Z,60.72
2022-09-09T08:09:18.328Z,61.91
2022-09-09T08:11:46.336Z,65.27
2022-09-09T08:14:14.440Z,63.43
2022-09-09T08:16:46.091Z,57.77
2022-09-09T08:19:16.866Z,55.79
2022-09-09T08:21:45.893Z,57.24
2022-09-09T08:24:17.631Z,58.65
2022-09-09T08:26:49.489Z,59.45
2022-09-09T08:29:18.695Z,60.17
2022-09-09T08:31:52.296Z,60.68
2022-09-09T08:34:21.205Z,60.87
2022-09-09T08:36:50.916Z,63.80
2022-09-09T08:39:21.569Z,62.55
2022-09-09T08:42:15.136Z,57.06
2022-09-09T08:45:04.255Z,55.91
2022-09-09T08:48:08.095Z,56.88
2022-09-09T08:50:39.622Z,58.56
2022-09-09T08:53:34.286Z,60.29
2022-09-09T08:56:10.270Z,60.51
2022-09-09T08:58:50.286Z,60.75
2022-09-09T09:01:42.953Z,60.99
2022-09-09T09:04:20.640Z,64.50
2022-09-09T09:07:16.364Z,62.61
2022-09-09T09:10:02.384Z,57.06
2022-09-09T09:12:38.037Z,55.58
2022-09-09T09:15:18.121Z,57.14
2022-09-09T09:17:46.371Z,57.64
2022-09-09T09:20:16.352Z,57.60
2022-09-09T09:22:52.989Z,59.48
2022-09-09T09:25:32.811Z,60.29
2022-09-09T09:28:24.426Z,60.03
2022-09-09T09:31:05.116Z,60.75
2022-09-09T09:33:35.763Z,61.61
2022-09-09T09:36:04.389Z,62.17
2022-09-09T09:41:43.993Z,62.67
2022-09-09T09:44:33.608Z,55.83
2022-09-09T09:47:11.968Z,54.66
2022-09-09T09:49:40.780Z,55.43
2022-09-09T09:52:19.172Z,56.56
2022-09-09T09:54:46.848Z,57.48
2022-09-09T09:57:17.608Z,57.89
2022-09-09T09:59:46.768Z,58.00
2022-09-09T10:02:15.781Z,58.59
2022-09-09T10:04:44.154Z,59.44
2022-09-09T10:07:23.377Z,60.01
2022-09-09T10:09:55.972Z,60.34
2022-09-09T10:12:32.960Z,60.81
2022-09-09T10:15:23.278Z,61.32
2022-09-09T10:18:46.142Z,61.52
2022-09-09T10:21:39.001Z,65.20
2022-09-09T10:24:31.476Z,61.30
2022-09-09T10:26:59.369Z,53.99
2022-09-09T10:29:53.496Z,52.65
2022-09-09T10:32:41.473Z,53.09
2022-09-09T10:35:37.832Z,53.87
2022-09-09T10:38:14.806Z,54.70
2022-09-09T10:40:52.433Z,55.18
2022-09-09T10:43:26.032Z,55.67
2022-09-09T10:46:08.899Z,56.00
2022-09-09T10:48:39.434Z,55.90
2022-09-09T10:51:07.340Z,56.90
2022-09-09T10:53:54.069Z,57.43
2022-09-09T10:56:25.001Z,56.88
2022-09-09T10:59:34.712Z,57.05
2022-09-09T11:02:18.570Z,57.92
2022-09-09T11:04:54.817Z,57.48
2022-09-09T11:07:48.891Z,57.98
2022-09-09T11:10:38.019Z,58.50
2022-09-09T11:13:16.899Z,58.52
2022-09-09T11:15:52.190Z,58.91
2022-09-09T11:18:24.512Z,59.56
2022-09-09T11:21:02.143Z,59.57
2022-09-09T11:23:41.801Z,59.35
2022-09-09T11:26:18.017Z,59.42
2022-09-09T11:29:18.814Z,59.05
2022-09-09T11:31:56.957Z,59.53
2022-09-09T11:34:37.445Z,60.05
2022-09-09T11:37:27.440Z,60.24
2022-09-09T11:40:25.007Z,59.44
2022-09-09T11:43:25.135Z,59.25
2022-09-09T11:46:00.175Z,58.87
2022-09-09T11:48:29.743Z,59.22
2022-09-09T11:51:02.248Z,59.35
2022-09-09T11:53:30.349Z,59.17
2022-09-09T11:56:34.859Z,59.05
2022-09-09T11:59:06.506Z,59.39
2022-09-09T12:01:34.085Z,59.21
2022-09-09T12:04:22.355Z,58.82
2022-09-09T12:06:54.521Z,58.73
2022-09-09T12:09:43.791Z,58.15
2022-09-09T12:12:14.574Z,58.04
2022-09-09T12:14:42.862Z,58.33
2022-09-09T12:17:40.912Z,58.56
2022-09-09T12:20:16.624Z,58.01
2022-09-09T12:23:11.574Z,57.64
2022-09-09T12:26:21.548Z,57.20
2022-09-09T12:29:10.772Z,57.34
2022-09-09T12:31:52.895Z,58.21
2022-09-09T12:34:39.047Z,57.93
2022-09-09T12:37:24.351Z,58.13
2022-09-09T12:40:01.006Z,57.90
2022-09-09T12:42:29.512Z,57.63
2022-09-09T12:45:01.170Z,57.45
2022-09-09T12:47:44.843Z,56.91
2022-09-09T12:50:38.613Z,57.23
2022-09-09T12:53:16.797Z,57.28
2022-09-09T12:56:11.493Z,57.43
2022-09-09T12:58:41.003Z,56.72
2022-09-09T13:01:23.664Z,56.96
2022-09-09T13:03:52.007Z,56.99
2022-09-09T13:06:39.945Z,56.85
2022-09-09T13:09:11.158Z,56.72
2022-09-09T13:11:40.933Z,56.05
2022-09-09T13:14:30.031Z,56.13
2022-09-09T13:17:00.708Z,56.36
2022-09-09T13:19:32.739Z,57.03
2022-09-09T13:22:00.499Z,56.99
2022-09-09T13:24:35.883Z,57.43
2022-09-09T13:27:32.607Z,57.16
2022-09-09T13:30:00.902Z,56.35
2022-09-09T13:32:29.666Z,55.81
2022-09-09T13:35:00.184Z,56.38
2022-09-09T13:37:39.537Z,56.93
2022-09-09T13:40:18.788Z,57.26
2022-09-09T13:42:46.777Z,57.68
2022-09-09T13:45:24.158Z,57.64
2022-09-09T13:47:53.728Z,57.92
2022-09-09T13:50:25.380Z,57.79
2022-09-09T13:53:00.382Z,58.26
2022-09-09T13:55:30.576Z,58.77
2022-09-09T13:58:01.698Z,57.86
2022-09-09T14:00:35.130Z,57.67
2022-09-09T14:03:03.227Z,57.97
2022-09-09T14:05:33.988Z,57.85
2022-09-09T14:08:04.261Z,57.66
2022-09-09T14:10:32.299Z,57.17
2022-09-09T14:13:00.025Z,57.71
2022-09-09T14:15:28.156Z,57.73
2022-09-09T14:17:56.104Z,57.36
2022-09-09T14:20:23.806Z,57.77
2022-09-09T14:22:51.556Z,57.15
2022-09-09T14:25:19.301Z,57.06
2022-09-09T14:27:47.107Z,56.66
2022-09-09T14:30:14.899Z,56.66
2022-09-09T14:32:42.760Z,57.19
2022-09-09T14:35:10.487Z,56.97
2022-09-09T14:37:40.210Z,57.31
2022-09-09T14:40:08.626Z,57.64
2022-09-09T14:42:36.367Z,57.73
2022-09-09T14:45:04.794Z,56.97
2022-09-09T14:47:33.318Z,57.32
2022-09-09T14:50:02.076Z,57.67
2022-09-09T14:52:31.312Z,57.50
2022-09-09T14:54:59.071Z,57.70
2022-09-09T14:57:26.793Z,57.28
2022-09-09T14:59:54.595Z,57.13
2022-09-09T15:02:22.460Z,57.39
2022-09-09T15:04:51.026Z,57.30
2022-09-09T15:07:20.559Z,57.26
2022-09-09T15:09:49.516Z,56.89
2022-09-09T15:12:19.864Z,57.27
2022-09-09T15:14:48.112Z,57.41
2022-09-09T15:17:15.904Z,57.70
2022-09-09T15:19:43.707Z,58.06
2022-09-09T15:22:11.555Z,57.80
2022-09-09T15:24:39.401Z,58.05
2022-09-09T15:27:07.160Z,58.31
2022-09-09T15:29:34.969Z,58.40
2022-09-09T15:32:03.095Z,58.43
2022-09-09T15:34:30.978Z,58.81
2022-09-09T15:37:01.050Z,59.16
2022-09-09T15:39:29.003Z,59.46
2022-09-09T15:41:57.742Z,59.55
2022-09-09T15:44:26.572Z,59.69
2022-09-09T15:46:57.568Z,59.95
2022-09-09T15:49:27.133Z,60.20
2022-09-09T15:51:58.440Z,60.42
2022-09-09T15:54:27.290Z,60.69
2022-09-09T15:56:57.329Z,60.70
2022-09-09T15:59:28.836Z,60.97
2022-09-09T16:01:57.680Z,61.00
2022-09-09T16:04:26.066Z,61.24
2022-09-09T16:07:03.058Z,61.54
2022-09-09T16:09:32.385Z,61.63
2022-09-09T16:12:07.489Z,61.94
2022-09-09T16:14:36.829Z,61.99
2022-09-09T16:17:06.395Z,64.71
2022-09-09T16:19:35.646Z,63.57
2022-09-09T16:22:05.107Z,57.59
2022-09-09T16:24:33.666Z,55.34
2022-09-09T16:27:01.459Z,55.56
2022-09-09T16:29:29.630Z,56.04
2022-09-09T16:32:02.726Z,56.75
2022-09-09T16:34:31.735Z,57.19
2022-09-09T16:36:59.465Z,58.03
2022-09-09T16:39:27.327Z,58.65
2022-09-09T16:41:55.198Z,58.79
2022-09-09T16:44:23.398Z,59.11
2022-09-09T16:46:58.146Z,59.69
2022-09-09T16:49:29.324Z,60.10
2022-09-09T16:51:59.776Z,60.53
2022-09-09T16:54:28.270Z,60.78
2022-09-09T16:56:56.297Z,61.25
2022-09-09T16:59:24.536Z,61.57
2022-09-09T17:01:53.325Z,61.94
2022-09-09T17:04:25.265Z,64.98
2022-09-09T17:06:54.974Z,63.43
2022-09-09T17:09:23.847Z,57.48
2022-09-09T17:11:53.236Z,55.49
2022-09-09T17:14:22.864Z,55.74
2022-09-09T17:16:50.844Z,56.43
2022-09-09T17:19:19.000Z,57.27
2022-09-09T17:24:39.599Z,58.36
2022-09-09T17:27:08.524Z,59.15
2022-09-09T17:29:37.006Z,59.80
2022-09-09T17:32:07.041Z,60.37
2022-09-09T17:34:35.916Z,60.92
2022-09-09T17:37:05.230Z,61.67
2022-09-09T17:39:34.047Z,64.56
2022-09-09T17:42:02.442Z,63.48
2022-09-09T17:44:33.328Z,58.25
2022-09-09T17:47:01.937Z,56.36
2022-09-09T17:49:29.676Z,56.91
2022-09-09T17:51:57.668Z,57.74
2022-09-09T17:54:25.739Z,58.60
2022-09-09T17:56:53.587Z,59.44
2022-09-09T17:59:21.369Z,60.25
2022-09-09T18:01:50.907Z,61.26
2022-09-09T18:04:20.475Z,61.86
2022-09-09T18:06:51.144Z,65.14
2022-09-09T18:09:23.395Z,63.89
2022-09-09T18:11:54.636Z,57.17
2022-09-09T18:14:26.363Z,55.50
2022-09-09T18:16:54.545Z,56.53
2022-09-09T18:19:25.553Z,57.72
2022-09-09T18:21:54.692Z,58.76
2022-09-09T18:24:23.522Z,59.72
2022-09-09T18:26:51.477Z,60.39
2022-09-09T18:29:23.615Z,61.21
2022-09-09T18:31:53.324Z,64.68
2022-09-09T18:34:22.878Z,63.13
2022-09-09T18:36:55.175Z,57.91
2022-09-09T18:39:27.573Z,56.33
2022-09-09T18:42:02.338Z,57.37
2022-09-09T18:44:33.394Z,58.58
2022-09-09T18:47:03.560Z,59.89
2022-09-09T18:49:33.477Z,60.83
2022-09-09T18:52:02.917Z,61.64
2022-09-09T18:54:33.399Z,65.22
2022-09-09T18:57:01.396Z,63.48
2022-09-09T18:59:30.247Z,57.12
2022-09-09T19:01:58.490Z,55.54
2022-09-09T19:04:27.679Z,56.54
2022-09-09T19:06:59.139Z,57.66
2022-09-09T19:09:31.187Z,58.80
2022-09-09T19:12:00.832Z,60.18
2022-09-09T19:14:30.245Z,61.23
2022-09-09T19:16:58.946Z,64.66
2022-09-09T19:19:30.579Z,63.63
2022-09-09T19:21:59.425Z,57.90
2022-09-09T19:24:30.383Z,56.17
2022-09-09T19:27:01.953Z,56.90
2022-09-09T19:29:33.158Z,57.85
2022-09-09T19:32:42.685Z,59.16
2022-09-09T19:34:51.998Z,60.62
2022-09-09T19:37:20.508Z,64.46
2022-09-09T19:39:49.830Z,62.91
2022-09-09T19:42:17.818Z,57.21
2022-09-09T19:44:46.496Z,55.58
2022-09-09T19:47:15.197Z,56.71
2022-09-09T19:49:46.992Z,58.00
2022-09-09T19:52:17.145Z,59.44
2022-09-09T19:54:46.873Z,60.87
2022-09-09T19:57:15.574Z,64.52
2022-09-09T19:59:43.331Z,63.36
2022-09-09T20:02:15.837Z,57.30
2022-09-09T20:04:44.581Z,55.12
2022-09-09T20:07:14.849Z,56.22
2022-09-09T20:09:42.588Z,57.70
2022-09-09T20:12:10.595Z,59.22
2022-09-09T20:14:39.883Z,60.36
2022-09-09T20:17:08.359Z,61.51
2022-09-09T20:19:36.136Z,65.34
2022-09-09T20:22:04.468Z,63.37
2022-09-09T20:24:32.347Z,57.26
2022-09-09T20:27:00.123Z,55.50
2022-09-09T20:29:27.930Z,56.62
2022-09-09T20:31:55.629Z,58.01
2022-09-09T20:34:25.802Z,59.26
2022-09-09T20:36:54.805Z,60.52
2022-09-09T20:39:22.665Z,64.31
2022-09-09T20:41:50.812Z,63.48
2022-09-09T20:44:22.910Z,56.78
2022-09-09T20:46:55.234Z,55.15
2022-09-09T20:49:24.370Z,56.56
2022-09-09T20:51:53.787Z,58.26
2022-09-09T20:54:26.916Z,59.70
2022-09-09T20:56:58.087Z,61.12
2022-09-09T20:59:31.281Z,64.71
2022-09-09T21:02:00.919Z,63.24
2022-09-09T21:04:29.470Z,57.03
2022-09-09T21:06:57.463Z,55.92
2022-09-09T21:09:25.294Z,56.99
2022-09-09T21:11:53.833Z,58.32
2022-09-09T21:14:22.512Z,59.68
2022-09-09T21:16:50.505Z,60.96
2022-09-09T21:19:18.711Z,64.47
2022-09-09T21:21:47.967Z,63.45
2022-09-09T21:24:16.837Z,57.89
2022-09-09T21:26:44.767Z,56.45
2022-09-09T21:29:13.199Z,57.62
2022-09-09T21:31:43.505Z,59.07
2022-09-09T21:34:13.326Z,60.45
2022-09-09T21:36:41.194Z,61.83
2022-09-09T21:39:09.038Z,64.88
2022-09-09T21:41:37.002Z,63.45
2022-09-09T21:44:04.777Z,58.98
2022-09-09T21:46:32.632Z,57.21
2022-09-09T21:49:03.462Z,58.30
2022-09-09T21:51:31.249Z,59.66
2022-09-09T21:53:59.537Z,60.98
2022-09-09T21:56:27.366Z,64.66
2022-09-09T21:58:57.691Z,63.87
2022-09-09T22:01:26.407Z,57.60
2022-09-09T22:03:55.037Z,56.06
2022-09-09T22:06:22.764Z,57.28
2022-09-09T22:08:51.069Z,58.51
2022-09-09T22:11:22.784Z,59.50
2022-09-09T22:13:51.121Z,59.96
2022-09-09T22:16:21.806Z,61.33
2022-09-09T22:18:56.826Z,64.82
2022-09-09T22:21:27.140Z,63.48
2022-09-09T22:23:57.889Z,56.61
2022-09-09T22:26:27.991Z,54.72
2022-09-09T22:28:57.425Z,55.38
2022-09-09T22:31:26.770Z,56.05
2022-09-09T22:33:54.766Z,56.84
2022-09-09T22:36:23.263Z,58.00
2022-09-09T22:38:51.481Z,58.92
2022-09-09T22:41:20.017Z,60.49
2022-09-09T22:43:48.632Z,61.55
2022-09-09T22:46:17.234Z,65.21
2022-09-09T22:48:44.951Z,64.00
2022-09-09T22:51:14.693Z,60.85
2022-09-09T22:53:44.783Z,56.00
2022-09-09T22:56:17.337Z,54.46
2022-09-09T22:58:46.846Z,55.82
2022-09-09T23:01:21.182Z,57.34
2022-09-09T23:03:50.548Z,58.60
2022-09-09T23:06:22.489Z,60.30
2022-09-09T23:09:02.238Z,61.29
2022-09-09T23:11:33.723Z,65.39
2022-09-09T23:14:03.185Z,63.16
2022-09-09T23:16:35.441Z,56.69
2022-09-09T23:19:03.726Z,55.12
2022-09-09T23:21:32.385Z,56.23
2022-09-09T23:24:00.712Z,57.58
2022-09-09T23:26:29.906Z,58.78
2022-09-09T23:28:59.841Z,59.79
2022-09-09T23:31:30.627Z,60.82
2022-09-09T23:34:02.786Z,64.13
2022-09-09T23:36:31.239Z,62.90
2022-09-09T23:39:02.132Z,56.80
2022-09-09T23:41:31.977Z,55.12
2022-09-09T23:44:00.908Z,56.37
2022-09-09T23:46:30.861Z,57.84
2022-09-09T23:48:59.982Z,59.51
2022-09-09T23:51:30.361Z,60.78
2022-09-09T23:54:01.968Z,64.25
2022-09-09T23:56:32.981Z,62.31
2022-09-09T23:59:01.237Z,56.49
